Latest Weather Observations for Dartmoor

IDV60801

Issued at 10:31 am EDT Sunday 7 February 2016 (issued every 30 minutes, with the page automatically refreshed every 10 minutes)

About weather observations | Map of weather stations | Latest weather observations for VIC | Other Formats
Station Details ID: 090194 Name: DARTMOOR Lat: -37.92 Lon: 141.26 Height: 51.0 m
Data from the previous 72 hours. | See also: Recent months at Dartmoor
Date/Time
EDT
Temp
°C
App
Temp
°C
Dew
Point
Rel
Hum
%
Delta-T
°C
Wind Press
QNH
hPa
Press
MSL
hPa
Rain
since 9 am
mm
Dir
 
Spd
km/h
Gust
km/h
Spd
kts
Gust
kts
07/10:30am 22.1 21.0 15.2 65 4.1 SSE 15 19 8 10 1018.6 1018.5 0.0
07/10:00am 21.4 21.3 15.9 71 3.3 S 11 28 6 15 1018.7 1018.6 0.0
07/09:30am 19.6 19.4 15.7 78 2.3 S 11 17 6 9 1018.4 1018.3 0.0
07/09:00am 18.2 18.5 15.1 82 1.8 S 7 13 4 7 1018.2 1018.1 0.0
07/08:30am 17.4 18.1 15.6 89 1.1 SE 6 11 3 6 1017.5 1017.4 0.0
07/08:00am 16.4 17.9 15.8 96 0.4 SSE 2 4 1 2 1017.4 1017.3 0.0
07/07:30am 15.5 16.7 15.0 97 0.3 SSE 2 6 1 3 1017.2 1017.1 0.0
07/07:00am 15.6 16.1 15.1 97 0.3 S 6 9 3 5 1017.0 1016.9 0.0
07/06:30am 15.9 15.2 15.4 97 0.3 SSW 13 19 7 10 1016.6 1016.5 0.0
07/06:00am 16.1 14.8 15.8 98 0.2 SSW 17 22 9 12 1016.4 1016.3 0.0
07/05:30am 15.9 13.9 15.4 97 0.3 SSW 20 26 11 14 1016.1 1016.0 0.0
07/05:00am 15.6 14.3 14.8 95 0.5 SSW 15 17 8 9 1015.6 1015.5 0.0
07/04:30am 14.9 14.1 14.1 95 0.5 SSW 11 15 6 8 1015.4 1015.3 0.0
07/04:00am 15.1 15.1 14.1 94 0.6 SSW 7 7 4 4 1015.1 1015.0 0.0
07/03:30am 15.3 16.2 14.0 92 0.7 S 2 2 1 1 1015.1 1015.0 0.0
07/03:00am 15.4 15.9 14.1 92 0.7 SSW 4 6 2 3 1015.5 1015.4 0.0
07/02:30am 15.6 15.8 14.1 91 0.9 SSE 6 7 3 4 1015.6 1015.5 0.0
07/02:00am 15.6 16.4 13.6 88 1.1 SE 2 4 1 2 1015.9 1015.8 0.0
07/01:30am 16.1 16.6 13.9 87 1.2 SE 4 4 2 2 1016.2 1016.1 0.0
07/01:00am 16.4 16.6 14.2 87 1.3 SSE 6 7 3 4 1016.4 1016.3 0.0
07/12:30am 16.4 16.4 13.7 84 1.5 SSE 6 6 3 3 1016.4 1016.3 0.0
07/12:00am 17.3 17.3 14.2 82 1.8 SE 7 9 4 5 1016.2 1016.1 0.0
 
Date/Time
EDT
Temp
°C
App
Temp
°C
Dew
Point
Rel
Hum
%
Delta-T
°C
Wind Press
QNH
hPa
Press
MSL
hPa
Rain
since 9 am
mm
Dir
 
Spd
km/h
Gust
km/h
Spd
kts
Gust
kts
06/11:30pm 17.7 18.1 13.8 78 2.2 ESE 4 6 2 3 1016.3 1016.2 0.0
06/11:00pm 18.6 18.7 13.9 74 2.7 ESE 6 7 3 4 1016.4 1016.3 0.0
06/10:30pm 19.4 19.0 14.0 71 3.1 SE 9 9 5 5 1016.3 1016.2 0.0
06/10:00pm 20.0 19.3 13.2 65 3.9 SE 9 13 5 7 1016.2 1016.1 0.0
06/09:30pm 20.9 19.2 12.6 59 4.7 SE 13 19 7 10 1015.7 1015.6 0.0
06/09:00pm 21.9 20.4 13.0 57 5.1 ESE 13 19 7 10 1015.2 1015.1 0.0
06/08:30pm 23.6 21.5 13.5 53 5.9 ESE 17 22 9 12 1014.8 1014.7 0.0
06/08:00pm 25.5 23.1 13.7 48 7.0 E 19 26 10 14 1014.4 1014.3 0.0
06/07:30pm 28.8 26.1 10.5 32 10.4 SSE 15 20 8 11 1013.9 1013.8 0.0
06/07:00pm 29.2 26.5 10.3 31 10.7 S 15 20 8 11 1013.6 1013.5 0.0
06/06:30pm 28.6 25.0 9.8 31 10.5 SSW 19 24 10 13 1013.5 1013.4 0.0
06/06:00pm 28.7 25.4 9.4 30 10.8 SSW 17 24 9 13 1013.6 1013.5 0.0
06/05:30pm 29.8 25.3 9.9 29 11.2 SSW 24 32 13 17 1013.4 1013.3 0.0
06/05:00pm 30.5 26.6 9.4 27 11.9 SSW 20 28 11 15 1013.2 1013.1 0.0
06/04:30pm 31.1 26.8 9.3 26 12.3 SSW 22 30 12 16 1013.3 1013.2 0.0
06/04:00pm 31.6 27.3 9.2 25 12.6 SSW 22 37 12 20 1013.5 1013.4 0.0
06/03:30pm 31.9 27.2 9.4 25 12.7 SSW 24 32 13 17 1013.8 1013.7 0.0
06/03:00pm 32.6 29.8 11.2 27 12.5 SW 17 32 9 17 1013.9 1013.8 0.0
06/02:30pm 32.3 30.4 9.2 24 13.1 WNW 9 17 5 9 1014.2 1014.1 0.0
06/02:00pm 32.7 30.3 10.1 25 13.0 NW 13 22 7 12 1014.4 1014.3 0.0
06/01:30pm 31.6 30.0 10.3 27 12.2 WNW 9 20 5 11 1014.9 1014.8 0.0
06/01:00pm 31.0 30.0 10.9 29 11.6 WNW 7 19 4 10 1015.3 1015.2 0.0
06/12:30pm 30.1 28.1 10.1 29 11.4 WNW 11 19 6 10 1015.8 1015.7 0.0
06/12:00pm 28.7 27.3 10.8 33 10.2 WNW 9 19 5 10 1016.1 1016.0 0.0
06/11:30am 27.8 26.4 12.2 38 9.1 NW 11 19 6 10 1016.3 1016.2 0.0
06/11:00am 26.1 24.7 12.2 42 8.0 NNW 11 19 6 10 1016.4 1016.3 0.0
06/10:30am 24.1 24.4 13.3 51 6.3 NW 4 9 2 5 1016.5 1016.4 0.0
06/10:00am 21.6 22.3 14.5 64 4.2 ENE 4 7 2 4 1016.6 1016.5 0.0
06/09:30am 19.7 19.6 13.9 69 3.3 ENE 7 13 4 7 1016.8 1016.7 0.0
06/09:00am 17.6 17.4 13.7 78 2.2 ENE 7 13 4 7 1016.6 1016.5 0.0
06/08:30am 15.7 15.5 13.0 84 1.5 ENE 6 9 3 5 1016.4 1016.3 0.0
06/08:00am 14.9 14.8 13.3 90 0.9 E 6 7 3 4 1016.2 1016.1 0.0
06/07:30am 13.7 13.4 12.8 94 0.5 SE 6 7 3 4 1016.1 1016.0 0.0
06/07:00am 13.3 12.4 12.5 95 0.4 SSE 9 11 5 6 1015.9 1015.8 0.0
06/06:30am 12.9 11.8 12.0 94 0.5 SE 9 9 5 5 1015.5 1015.4 0.0
06/06:00am 12.7 11.9 11.8 94 0.5 SSE 7 7 4 4 1015.4 1015.3 0.0
06/05:30am 13.1 13.0 12.0 93 0.6 ESE 4 6 2 3 1015.2 1015.1 0.0
06/05:00am 13.9 12.6 12.6 92 0.7 E 11 13 6 7 1015.5 1015.4 0.0
06/04:30am 13.5 12.5 12.2 92 0.7 E 9 13 5 7 1015.6 1015.5 0.0
06/04:00am 14.2 13.9 12.8 91 0.8 SE 6 7 3 4 1015.8 1015.7 0.0
06/03:30am 15.0 14.8 13.5 91 0.8 ESE 7 11 4 6 1015.9 1015.8 0.0
06/03:00am 14.9 14.6 13.3 90 0.9 ESE 7 9 4 5 1016.2 1016.1 0.0
06/02:30am 15.5 15.0 13.9 90 0.9 ESE 9 13 5 7 1016.6 1016.5 0.0
06/02:00am 15.7 15.2 13.9 89 1.0 SE 9 13 5 7 1016.8 1016.7 0.0
06/01:30am 15.9 15.6 14.4 91 0.9 SE 9 13 5 7 1017.1 1017.0 0.0
06/01:00am 16.1 15.8 14.5 90 0.9 SE 9 11 5 6 1017.4 1017.3 0.0
06/12:30am 16.2 16.3 14.4 89 1.0 SE 7 9 4 5 1017.5 1017.4 0.0
06/12:00am 16.9 16.3 14.7 87 1.3 SE 11 13 6 7 1017.7 1017.6 0.0
 
Date/Time
EDT
Temp
°C
App
Temp
°C
Dew
Point
Rel
Hum
%
Delta-T
°C
Wind Press
QNH
hPa
Press
MSL
hPa
Rain
since 9 am
mm
Dir
 
Spd
km/h
Gust
km/h
Spd
kts
Gust
kts
05/11:30pm 17.0 16.8 14.8 87 1.3 SE 9 11 5 6 1017.9 1017.8 0.0
05/11:00pm 17.5 16.3 15.1 86 1.4 ESE 15 20 8 11 1018.1 1018.0 0.0
05/10:30pm 17.7 16.5 15.0 84 1.6 SE 15 22 8 12 1018.3 1018.2 0.0
05/10:00pm 18.0 16.8 15.1 83 1.7 SE 15 20 8 11 1018.4 1018.3 0.0
05/09:30pm 18.4 16.8 14.9 80 2.0 SE 17 22 9 12 1018.2 1018.1 0.0
05/09:00pm 19.0 17.1 15.1 78 2.3 SE 19 24 10 13 1017.9 1017.8 0.0
05/08:30pm 19.8 17.2 15.0 74 2.8 SE 22 32 12 17 1017.8 1017.7 0.0
05/08:00pm 20.6 16.8 14.7 69 3.5 ESE 28 39 15 21 1017.4 1017.3 0.0
05/07:30pm 21.7 17.7 14.1 62 4.4 SE 28 39 15 21 1017.1 1017.0 0.0
05/07:00pm 22.8 18.9 14.4 59 4.9 SE 28 37 15 20 1017.0 1016.9 0.0
05/06:30pm 23.9 20.0 14.3 55 5.7 SE 28 35 15 19 1016.8 1016.7 0.0
05/06:00pm 24.8 21.2 14.3 52 6.2 SE 26 32 14 17 1016.9 1016.8 0.0
05/05:30pm 25.6 21.7 14.4 50 6.7 SE 28 39 15 21 1016.9 1016.8 0.0
05/05:00pm 25.8 23.0 14.3 49 6.8 SE 22 32 12 17 1017.0 1016.9 0.0
05/04:30pm 26.8 23.6 14.2 46 7.5 ESE 24 33 13 18 1017.0 1016.9 0.0
05/04:00pm 27.6 25.2 13.9 43 8.2 ESE 19 30 10 16 1017.3 1017.2 0.0
05/03:30pm 26.3 22.9 13.8 46 7.4 SE 24 35 13 19 1017.6 1017.5 0.0
05/03:00pm 27.1 23.5 13.1 42 8.2 SE 24 32 13 17 1017.9 1017.8 0.0
05/02:30pm 27.3 24.5 12.5 40 8.6 SE 19 32 10 17 1018.2 1018.1 0.0
05/02:00pm 25.9 23.6 11.6 40 8.1 SE 15 26 8 14 1018.6 1018.5 0.0
05/01:30pm 26.4 25.0 12.1 41 8.2 E 11 20 6 11 1018.9 1018.8 0.0
05/01:00pm 25.3 23.6 12.5 45 7.4 ESE 13 24 7 13 1019.4 1019.3 0.0
05/12:30pm 24.0 21.9 12.3 48 6.7 ESE 15 28 8 15 1019.9 1019.8 0.0
05/12:00pm 22.9 19.9 11.9 50 6.2 E 19 30 10 16 1020.3 1020.2 0.0
05/11:30am 21.6 17.9 11.6 53 5.6 ESE 22 32 12 17 1020.8 1020.7 0.0
05/11:00am 21.0 17.3 11.6 55 5.2 E 22 33 12 18 1021.0 1020.9 0.0
05/10:30am 19.3 15.1 11.1 59 4.5 ESE 24 33 13 18 1021.3 1021.2 0.0
05/10:00am 18.6 15.3 10.9 61 4.2 ESE 19 28 10 15 1021.5 1021.4 0.0
05/09:30am 18.4 14.5 10.8 61 4.1 ESE 22 30 12 16 1021.7 1021.6 0.0
05/09:00am 17.3 12.8 10.2 63 3.8 ESE 24 32 13 17 1021.6 1021.5 0.0
05/08:30am 17.6 14.6 10.7 64 3.7 ESE 17 24 9 13 1021.5 1021.4 0.0
05/08:00am 16.5 14.1 10.1 66 3.4 ESE 13 19 7 10 1021.1 1021.0 0.0
05/07:30am 15.4 12.9 9.7 69 3.0 SE 13 17 7 9 1020.9 1020.8 0.0
05/07:00am 15.1 12.6 9.7 70 2.8 SE 13 20 7 11 1020.6 1020.5 0.0
05/06:30am 15.1 11.5 9.7 70 2.8 SE 19 24 10 13 1020.5 1020.4 0.0
05/06:00am 15.2 12.3 9.8 70 2.8 SSE 15 22 8 12 1020.4 1020.3 0.0
05/05:30am 15.3 11.1 9.7 69 2.9 SE 22 32 12 17 1020.2 1020.1 0.0
05/05:00am 15.3 11.7 9.9 70 2.8 SSE 19 30 10 16 1020.1 1020.0 0.0
05/04:30am 15.3 11.7 9.7 69 2.9 SE 19 22 10 12 1020.1 1020.0 0.0
05/04:00am 15.3 11.5 9.7 69 2.9 SE 20 28 11 15 1020.2 1020.1 0.0
05/03:30am 15.4 10.4 9.7 69 3.0 SE 26 33 14 18 1020.2 1020.1 0.0
05/03:00am 15.5 11.7 9.8 69 3.0 SE 20 30 11 16 1020.5 1020.4 0.0
05/02:30am 15.4 11.1 9.5 68 3.1 SE 22 33 12 18 1020.7 1020.6 0.0
05/02:00am 15.4 11.1 9.5 68 3.0 SE 22 33 12 18 1021.0 1020.9 0.0
05/01:30am 15.6 11.0 9.5 67 3.2 SE 24 32 13 17 1021.4 1021.3 0.0
05/01:00am 15.6 11.0 9.7 68 3.1 SE 24 39 13 21 1021.3 1021.2 0.0
05/12:30am 15.7 10.7 9.6 67 3.2 SE 26 37 14 20 1021.4 1021.3 0.0
05/12:00am 15.7 11.5 9.6 67 3.2 SE 22 33 12 18 1021.5 1021.4 0.0
 
Date/Time
EDT
Temp
°C
App
Temp
°C
Dew
Point
Rel
Hum
%
Delta-T
°C
Wind Press
QNH
hPa
Press
MSL
hPa
Rain
since 9 am
mm
Dir
 
Spd
km/h
Gust
km/h
Spd
kts
Gust
kts
04/11:30pm 15.8 11.2 9.7 67 3.2 SE 24 43 13 23 1021.5 1021.4 0.0
04/11:00pm 15.8 12.2 9.7 67 3.2 SSE 19 28 10 15 1021.7 1021.6 0.0
04/10:30pm 15.7 11.5 9.6 67 3.2 SE 22 28 12 15 1021.7 1021.6 0.0
04/10:00pm 15.8 12.1 9.5 66 3.3 SSE 19 24 10 13 1021.8 1021.7 0.0
04/09:30pm 15.7 12.4 9.6 67 3.2 SSE 17 24 9 13 1021.7 1021.6 0.0
04/09:00pm 15.7 11.4 9.4 66 3.3 SSE 22 32 12 17 1021.4 1021.3 0.0
04/08:30pm 16.2 11.1 9.2 63 3.6 SE 26 35 14 19 1021.1 1021.0 0.0
04/08:00pm 17.2 12.2 9.4 60 4.1 SE 26 35 14 19 1020.8 1020.7 0.0
04/07:30pm 18.4 13.4 9.7 57 4.6 SE 26 37 14 20 1020.4 1020.3 0.0
04/07:00pm 19.4 14.5 9.9 54 5.1 SE 26 37 14 20 1020.2 1020.1 0.0
04/06:30pm 20.1 14.2 10.5 54 5.2 SE 32 39 17 21 1020.0 1019.9 0.0
04/06:00pm 21.4 17.2 9.9 48 6.2 SSE 22 33 12 18 1020.1 1020.0 0.0
04/05:30pm 20.9 16.0 10.1 50 5.8 SE 26 43 14 23 1020.3 1020.2 0.0
04/05:00pm 21.1 15.9 10.3 50 5.9 SSE 28 43 15 23 1020.5 1020.4 0.0
04/04:30pm 22.2 16.8 9.4 44 6.9 SSE 28 37 15 20 1020.3 1020.2 0.0
04/04:00pm 21.8 16.6 9.0 44 6.8 S 26 39 14 21 1020.5 1020.4 0.0
04/03:30pm 21.1 16.9 9.7 48 6.1 SSE 22 32 12 17 1020.7 1020.6 0.0
04/03:00pm 22.2 17.2 9.4 44 6.9 SSE 26 41 14 22 1021.0 1020.9 0.0
04/02:30pm 21.9 16.7 10.4 48 6.3 S 28 43 15 23 1020.9 1020.8 0.0
04/02:00pm 22.2 18.2 10.4 47 6.4 S 22 33 12 18 1021.1 1021.0 0.0
04/01:30pm 21.4 17.2 9.9 48 6.2 S 22 37 12 20 1021.3 1021.2 0.0
04/01:00pm 20.7 15.3 9.6 49 5.9 S 28 41 15 22 1021.5 1021.4 0.0
04/12:30pm 20.5 16.1 9.1 48 6.0 SSE 22 33 12 18 1021.8 1021.7 0.0
04/12:00pm 20.2 16.4 9.7 51 5.6 S 20 32 11 17 1022.0 1021.9 0.0
04/11:30am 19.3 14.5 10.3 56 4.8 S 26 37 14 20 1021.9 1021.8 0.0
04/11:00am 19.5 16.0 10.8 57 4.7 S 20 33 11 18 1021.9 1021.8 0.0

Other Formats:

Comma delimited format used in spreadsheet applications
http://www.bom.gov.au/fwo/IDV60801/IDV60801.95822.axf

JavaScript Object Notation format (JSON) in row-major order
http://www.bom.gov.au/fwo/IDV60801/IDV60801.95822.json